createdAt,value
2023-03-22T00:00:57.829Z,999.5
2023-03-22T00:02:14.128Z,999.4
2023-03-22T00:03:30.409Z,999.4
2023-03-22T00:04:46.709Z,999.4
2023-03-22T00:06:03.013Z,999.4
2023-03-22T00:07:19.290Z,999.3
2023-03-22T00:08:35.591Z,999.3
2023-03-22T00:09:51.886Z,999.3
2023-03-22T00:11:08.175Z,999.3
2023-03-22T00:12:23.485Z,999.3
2023-03-22T00:13:39.784Z,999.3
2023-03-22T00:14:56.076Z,999.4
2023-03-22T00:16:12.364Z,999.4
2023-03-22T00:17:28.661Z,999.3
2023-03-22T00:18:44.962Z,999.3
2023-03-22T00:20:01.260Z,999.3
2023-03-22T00:21:17.555Z,999.2
2023-03-22T00:22:33.836Z,999.3
2023-03-22T00:23:50.136Z,999.4
2023-03-22T00:25:06.439Z,999.3
2023-03-22T00:26:22.718Z,999.2
2023-03-22T00:27:39.017Z,999.2
2023-03-22T00:28:54.324Z,999.1
2023-03-22T00:30:10.624Z,999.2
2023-03-22T00:31:26.911Z,999.2
2023-03-22T00:32:43.215Z,999.1
2023-03-22T00:33:59.510Z,999.2
2023-03-22T00:35:15.795Z,999.2
2023-03-22T00:36:32.100Z,999.1
2023-03-22T00:37:48.382Z,999.2
2023-03-22T00:39:04.681Z,999.2
2023-03-22T00:40:20.981Z,999.2
2023-03-22T00:41:37.277Z,999.2
2023-03-22T00:42:53.565Z,999.2
2023-03-22T00:44:09.864Z,999.2
2023-03-22T00:45:25.160Z,999.2
2023-03-22T00:46:41.463Z,999.2
2023-03-22T00:47:57.761Z,999.2
2023-03-22T00:49:14.058Z,999.1
2023-03-22T00:50:30.349Z,999.1
2023-03-22T00:51:46.642Z,999.1
2023-03-22T00:53:02.940Z,999.1
2023-03-22T00:54:19.226Z,999.1
2023-03-22T00:55:35.514Z,999.1
2023-03-22T00:56:51.813Z,999.1
2023-03-22T00:58:08.110Z,999.1
2023-03-22T00:59:24.403Z,999.1
2023-03-22T01:00:40.694Z,999.1
2023-03-22T01:01:56.004Z,999.1
2023-03-22T01:03:12.302Z,999.1
2023-03-22T01:04:28.588Z,999.1
2023-03-22T01:05:44.881Z,999.2
2023-03-22T01:07:01.185Z,999.1
2023-03-22T01:08:17.473Z,999.1
2023-03-22T01:09:33.770Z,999.1
2023-03-22T01:10:50.053Z,999.1
2023-03-22T01:12:06.354Z,999
2023-03-22T01:13:22.645Z,999
2023-03-22T01:14:38.936Z,999
2023-03-22T01:15:55.234Z,999
2023-03-22T01:17:11.531Z,998.9
2023-03-22T01:18:26.839Z,998.9
2023-03-22T01:19:43.143Z,998.9
2023-03-22T01:20:59.439Z,999
2023-03-22T01:22:15.731Z,998.9
2023-03-22T01:23:32.013Z,999
2023-03-22T01:24:48.306Z,998.9
2023-03-22T01:26:04.604Z,998.9
2023-03-22T01:27:20.910Z,998.9
2023-03-22T01:28:37.191Z,998.9
2023-03-22T01:29:53.480Z,998.9
2023-03-22T01:31:09.786Z,998.9
2023-03-22T01:32:26.074Z,998.9
2023-03-22T01:33:42.369Z,998.9
2023-03-22T01:34:57.682Z,998.9
2023-03-22T01:36:13.973Z,998.9
2023-03-22T01:37:30.269Z,998.9
2023-03-22T01:38:46.574Z,998.9
2023-03-22T01:40:02.847Z,998.8
2023-03-22T01:41:19.158Z,998.9
2023-03-22T01:42:35.444Z,998.8
2023-03-22T01:43:51.736Z,998.8
2023-03-22T01:45:08.022Z,998.8
2023-03-22T01:46:24.330Z,998.9
2023-03-22T01:47:40.609Z,998.8
2023-03-22T01:48:56.909Z,998.8
2023-03-22T01:50:13.203Z,998.7
2023-03-22T01:51:28.510Z,998.7
2023-03-22T01:52:44.810Z,998.7
2023-03-22T01:54:01.097Z,998.7
2023-03-22T01:55:17.400Z,998.7
2023-03-22T01:56:33.698Z,998.7
2023-03-22T01:57:49.993Z,998.8
2023-03-22T01:59:06.274Z,998.7
2023-03-22T02:00:22.577Z,998.6
2023-03-22T02:01:38.871Z,998.7
2023-03-22T02:02:55.157Z,998.6
2023-03-22T02:04:11.466Z,998.7
2023-03-22T02:05:27.745Z,998.7
2023-03-22T02:06:44.041Z,998.7
2023-03-22T02:07:59.356Z,998.7
2023-03-22T02:09:15.653Z,998.7
2023-03-22T02:10:31.935Z,998.7
2023-03-22T02:11:48.242Z,998.7
2023-03-22T02:13:04.535Z,998.7
2023-03-22T02:14:20.824Z,998.6
2023-03-22T02:15:37.110Z,998.6
2023-03-22T02:16:53.406Z,998.7
2023-03-22T02:18:09.704Z,998.6
2023-03-22T02:19:25.990Z,998.6
2023-03-22T02:20:42.299Z,998.6
2023-03-22T02:21:58.590Z,998.6
2023-03-22T02:23:14.882Z,998.5
2023-03-22T02:24:30.198Z,998.6
2023-03-22T02:25:46.483Z,998.6
2023-03-22T02:27:02.784Z,998.5
2023-03-22T02:28:19.074Z,998.5
2023-03-22T02:29:35.363Z,998.5
2023-03-22T02:30:51.660Z,998.6
2023-03-22T02:32:07.951Z,998.4
2023-03-22T02:33:24.245Z,998.5
2023-03-22T02:34:40.543Z,998.5
2023-03-22T02:35:56.831Z,998.5
2023-03-22T02:37:13.138Z,998.5
2023-03-22T02:38:29.430Z,998.5
2023-03-22T02:39:45.716Z,998.6
2023-03-22T02:41:02.009Z,998.5
2023-03-22T02:42:17.327Z,998.5
2023-03-22T02:43:33.625Z,998.5
2023-03-22T02:44:49.926Z,998.5
2023-03-22T02:46:06.197Z,998.5
2023-03-22T02:47:22.491Z,998.5
2023-03-22T02:48:37.817Z,998.6
2023-03-22T02:49:54.118Z,998.6
2023-03-22T02:51:10.400Z,998.6
2023-03-22T02:52:26.688Z,998.6
2023-03-22T02:53:42.987Z,998.6
2023-03-22T02:54:59.286Z,998.6
2023-03-22T02:56:15.572Z,998.6
2023-03-22T02:57:31.881Z,998.6
2023-03-22T02:58:48.159Z,998.6
2023-03-22T03:00:04.462Z,998.6
2023-03-22T03:01:20.748Z,998.6
2023-03-22T03:02:37.046Z,998.6
2023-03-22T03:03:53.342Z,998.6
2023-03-22T03:05:08.657Z,998.6
2023-03-22T03:06:24.941Z,998.6
2023-03-22T03:07:41.252Z,998.6
2023-03-22T03:08:57.548Z,998.7
2023-03-22T03:10:13.828Z,998.7
2023-03-22T03:11:30.131Z,998.7
2023-03-22T03:12:46.419Z,998.7
2023-03-22T03:14:02.707Z,998.7
2023-03-22T03:15:19.007Z,998.7
2023-03-22T03:16:35.302Z,998.6
2023-03-22T03:17:51.592Z,998.7
2023-03-22T03:19:07.890Z,998.7
2023-03-22T03:20:24.186Z,998.7
2023-03-22T03:21:39.491Z,998.8
2023-03-22T03:22:55.794Z,998.7
2023-03-22T03:24:12.084Z,998.6
2023-03-22T03:25:28.385Z,998.6
2023-03-22T03:26:44.665Z,998.6
2023-03-22T03:28:00.969Z,998.6
2023-03-22T03:29:17.261Z,998.6
2023-03-22T03:30:33.561Z,998.6
2023-03-22T03:31:49.840Z,998.6
2023-03-22T03:33:06.136Z,998.6
2023-03-22T03:34:22.429Z,998.6
2023-03-22T03:35:38.729Z,998.6
2023-03-22T03:36:55.026Z,998.6
2023-03-22T03:38:10.326Z,998.6
2023-03-22T03:39:26.639Z,998.6
2023-03-22T03:40:42.919Z,998.6
2023-03-22T03:41:59.215Z,998.6
2023-03-22T03:43:15.501Z,998.6
2023-03-22T03:44:31.814Z,998.6
2023-03-22T03:45:48.095Z,998.6
2023-03-22T03:47:04.383Z,998.6
2023-03-22T03:48:20.688Z,998.6
2023-03-22T03:49:36.981Z,998.6
2023-03-22T03:50:53.273Z,998.6
2023-03-22T03:52:09.573Z,998.6
2023-03-22T03:53:25.856Z,998.6
2023-03-22T03:54:41.169Z,998.5
2023-03-22T03:55:57.458Z,998.6
2023-03-22T03:57:13.757Z,998.6
2023-03-22T03:58:30.047Z,998.5
2023-03-22T03:59:46.352Z,998.5
2023-03-22T04:01:02.643Z,998.5
2023-03-22T04:02:18.939Z,998.5
2023-03-22T04:03:35.220Z,998.6
2023-03-22T04:04:51.526Z,998.5
2023-03-22T04:06:07.828Z,998.5
2023-03-22T04:07:24.109Z,998.5
2023-03-22T04:08:40.422Z,998.5
2023-03-22T04:09:56.697Z,998.5
2023-03-22T04:11:12.007Z,998.5
2023-03-22T04:12:28.309Z,998.5
2023-03-22T04:13:44.597Z,998.5
2023-03-22T04:15:00.892Z,998.5
2023-03-22T04:16:17.181Z,998.4
2023-03-22T04:17:33.483Z,998.5
2023-03-22T04:18:49.767Z,998.5
2023-03-22T04:20:06.066Z,998.5
2023-03-22T04:21:22.365Z,998.4
2023-03-22T04:22:38.660Z,998.5
2023-03-22T04:23:54.952Z,998.4
2023-03-22T04:25:11.242Z,998.4
2023-03-22T04:26:27.546Z,998.4
2023-03-22T04:27:42.845Z,998.4
2023-03-22T04:28:59.134Z,998.4
2023-03-22T04:30:15.441Z,998.4
2023-03-22T04:31:31.739Z,998.3
2023-03-22T04:32:48.036Z,998.3
2023-03-22T04:34:04.310Z,998.3
2023-03-22T04:35:20.604Z,998.4
2023-03-22T04:36:36.900Z,998.3
2023-03-22T04:37:53.208Z,998.3
2023-03-22T04:39:09.498Z,998.4
2023-03-22T04:40:25.799Z,998.3
2023-03-22T04:41:42.088Z,998.3
2023-03-22T04:42:58.381Z,998.3
2023-03-22T04:45:29.919Z,998.3
2023-03-22T04:46:46.184Z,998.3
2023-03-22T04:48:02.418Z,998.3
2023-03-22T04:49:18.654Z,998.3
2023-03-22T04:50:34.901Z,998.3
2023-03-22T04:51:51.138Z,998.3
2023-03-22T04:53:07.385Z,998.2
2023-03-22T04:54:23.613Z,998.3
2023-03-22T04:55:39.869Z,998.2
2023-03-22T04:56:56.104Z,998.2
2023-03-22T04:58:12.341Z,998.2
2023-03-22T04:59:28.579Z,998.3
2023-03-22T05:00:43.833Z,998.2
2023-03-22T05:02:00.077Z,998.2
2023-03-22T05:03:16.316Z,998.2
2023-03-22T05:04:32.568Z,998.1
2023-03-22T05:05:48.813Z,998.2
2023-03-22T05:07:05.029Z,998.2
2023-03-22T05:08:21.292Z,998.2
2023-03-22T05:09:37.524Z,998.2
2023-03-22T05:10:53.753Z,998.2
2023-03-22T05:12:10.012Z,998.2
2023-03-22T05:13:26.236Z,998.2
2023-03-22T05:14:42.488Z,998.3
2023-03-22T05:15:58.730Z,998.3
2023-03-22T05:17:13.989Z,998.4
2023-03-22T05:18:30.207Z,998.3
2023-03-22T05:19:46.448Z,998.2
2023-03-22T05:21:02.696Z,998.2
2023-03-22T05:22:18.931Z,998.2
2023-03-22T05:23:35.166Z,998.2
2023-03-22T05:24:51.408Z,998.2
2023-03-22T05:26:07.656Z,998.2
2023-03-22T05:27:23.906Z,998.1
2023-03-22T05:28:40.144Z,998.1
2023-03-22T05:29:56.377Z,998.1
2023-03-22T05:31:12.614Z,998.1
2023-03-22T05:32:28.869Z,998.1
2023-03-22T05:33:44.112Z,998.1
2023-03-22T05:35:00.359Z,998.1
2023-03-22T05:36:16.582Z,998.2
2023-03-22T05:37:32.826Z,998.1
2023-03-22T05:38:49.074Z,998.1
2023-03-22T05:40:05.325Z,998.1
2023-03-22T05:41:21.555Z,998.1
2023-03-22T05:42:37.000Z,998.1
2023-03-22T05:43:54.025Z,998.1
2023-03-22T05:45:10.265Z,998
2023-03-22T05:46:26.507Z,998
2023-03-22T05:47:42.759Z,998.1
2023-03-22T05:48:59.000Z,998.1
2023-03-22T05:50:14.253Z,998.1
2023-03-22T05:51:30.481Z,998.1
2023-03-22T05:52:46.719Z,998.1
2023-03-22T05:54:02.984Z,998.1
2023-03-22T05:55:19.217Z,998.1
2023-03-22T05:56:35.449Z,998.1
2023-03-22T05:57:51.690Z,998.1
2023-03-22T05:59:07.920Z,998.1
2023-03-22T06:00:24.165Z,998.1
2023-03-22T06:01:40.414Z,998.1
2023-03-22T06:02:56.642Z,998.1
2023-03-22T06:04:12.896Z,998.1
2023-03-22T06:05:29.133Z,998
2023-03-22T06:06:44.387Z,998
2023-03-22T06:08:00.635Z,998
2023-03-22T06:09:16.873Z,998.1
2023-03-22T06:10:33.121Z,997.9
2023-03-22T06:11:49.352Z,998
2023-03-22T06:13:05.586Z,998
2023-03-22T06:14:21.827Z,998.1
2023-03-22T06:15:38.066Z,998.1
2023-03-22T06:16:54.297Z,998.1
2023-03-22T06:18:10.545Z,998.1
2023-03-22T06:19:26.795Z,998.1
2023-03-22T06:20:43.035Z,998.1
2023-03-22T06:21:59.272Z,998.2
2023-03-22T06:23:14.521Z,998.1
2023-03-22T06:24:30.763Z,998
2023-03-22T06:25:46.997Z,998
2023-03-22T06:27:03.257Z,998
2023-03-22T06:28:19.497Z,998.1
2023-03-22T06:29:35.728Z,998.1
2023-03-22T06:30:51.966Z,998.2
2023-03-22T06:32:08.200Z,998.3
2023-03-22T06:33:24.437Z,998.2
2023-03-22T06:34:40.690Z,998.3
2023-03-22T06:35:56.930Z,998.2
2023-03-22T06:37:13.168Z,998.2
2023-03-22T06:38:29.404Z,998.2
2023-03-22T06:39:44.662Z,998.3
2023-03-22T06:41:00.909Z,998.4
2023-03-22T06:42:17.150Z,998.3
2023-03-22T06:43:33.387Z,998.3
2023-03-22T06:44:49.623Z,998.3
2023-03-22T06:46:05.863Z,998.3
2023-03-22T06:47:22.101Z,998.4
2023-03-22T06:48:38.338Z,998.3
2023-03-22T06:49:54.592Z,998.3
2023-03-22T06:51:10.816Z,998.3
2023-03-22T06:52:27.069Z,998.4
2023-03-22T06:53:43.295Z,998.3
2023-03-22T06:54:59.554Z,998.4
2023-03-22T06:56:14.806Z,998.3
2023-03-22T06:57:31.045Z,998.3
2023-03-22T06:58:47.283Z,998.3
2023-03-22T07:00:03.517Z,998.3
2023-03-22T07:01:19.761Z,998.4
2023-03-22T07:02:35.998Z,998.4
2023-03-22T07:03:51.257Z,998.4
2023-03-22T07:05:07.509Z,998.3
2023-03-22T07:06:23.742Z,998.4
2023-03-22T07:07:39.989Z,998.4
2023-03-22T07:08:56.226Z,998.3
2023-03-22T07:10:12.459Z,998.3
2023-03-22T07:11:28.696Z,998.3
2023-03-22T07:12:44.929Z,998.3
2023-03-22T07:14:01.175Z,998.3
2023-03-22T07:15:17.420Z,998.3
2023-03-22T07:16:33.652Z,998.3
2023-03-22T07:17:49.890Z,998.3
2023-03-22T07:19:06.145Z,998.3
2023-03-22T07:20:21.400Z,998.3
2023-03-22T07:21:37.655Z,998.2
2023-03-22T07:22:53.887Z,998.2
2023-03-22T07:24:10.109Z,998.2
2023-03-22T07:25:26.367Z,998.2
2023-03-22T07:26:42.597Z,998.2
2023-03-22T07:27:58.844Z,998.1
2023-03-22T07:29:15.083Z,998.1
2023-03-22T07:30:31.327Z,998.1
2023-03-22T07:31:47.571Z,998.1
2023-03-22T07:33:03.798Z,998.1
2023-03-22T07:34:20.036Z,998.1
2023-03-22T07:35:36.290Z,998.1
2023-03-22T07:36:51.552Z,998.1
2023-03-22T07:38:07.772Z,998.1
2023-03-22T07:39:24.002Z,998.1
2023-03-22T07:40:40.246Z,998.1
2023-03-22T07:41:56.492Z,998.1
2023-03-22T07:43:12.736Z,998.1
2023-03-22T07:44:28.989Z,998.1
2023-03-22T07:45:45.208Z,998.1
2023-03-22T07:48:17.681Z,998
2023-03-22T07:49:33.931Z,998.1
2023-03-22T07:50:50.161Z,998.1
2023-03-22T07:52:06.405Z,998.1
2023-03-22T07:53:21.676Z,998
2023-03-22T07:54:37.901Z,998.1
2023-03-22T07:55:54.148Z,998.1
2023-03-22T07:57:10.380Z,998
2023-03-22T07:58:26.626Z,998
2023-03-22T07:59:42.866Z,998.1
2023-03-22T08:00:59.111Z,998
2023-03-22T08:02:15.355Z,998
2023-03-22T08:03:31.594Z,998
2023-03-22T08:04:47.821Z,998
2023-03-22T08:06:04.064Z,998
2023-03-22T08:07:20.305Z,997.8
2023-03-22T08:08:36.543Z,997.9
2023-03-22T08:09:51.804Z,997.8
2023-03-22T08:11:08.043Z,997.9
2023-03-22T08:12:24.294Z,997.9
2023-03-22T08:13:40.515Z,997.9
2023-03-22T08:14:56.773Z,997.9
2023-03-22T08:16:13.003Z,997.9
2023-03-22T08:17:29.244Z,997.9
2023-03-22T08:18:45.488Z,997.9
2023-03-22T08:20:01.725Z,997.9
2023-03-22T08:21:17.967Z,998
2023-03-22T08:22:34.199Z,997.9
2023-03-22T08:23:50.436Z,997.9
2023-03-22T08:25:06.687Z,998
2023-03-22T08:26:21.923Z,998
2023-03-22T08:27:38.175Z,998.1
2023-03-22T08:28:54.430Z,998
2023-03-22T08:30:10.648Z,998.1
2023-03-22T08:31:26.895Z,998
2023-03-22T08:32:43.121Z,997.9
2023-03-22T08:33:59.382Z,998
2023-03-22T08:35:15.625Z,997.9
2023-03-22T08:36:31.851Z,998.1
2023-03-22T08:37:48.095Z,998
2023-03-22T08:39:04.333Z,997.9
2023-03-22T08:40:20.570Z,997.9
2023-03-22T08:41:36.818Z,997.8
2023-03-22T08:42:52.060Z,997.8
2023-03-22T08:44:08.311Z,998
2023-03-22T08:45:24.558Z,997.9
2023-03-22T08:46:40.804Z,997.9
2023-03-22T08:47:57.055Z,997.9
2023-03-22T08:49:13.264Z,998
2023-03-22T08:50:29.505Z,997.9
2023-03-22T08:51:45.765Z,997.9
2023-03-22T08:53:01.984Z,997.9
2023-03-22T08:54:18.244Z,997.9
2023-03-22T08:55:34.464Z,997.8
2023-03-22T08:56:50.725Z,997.8
2023-03-22T08:58:06.966Z,997.7
2023-03-22T08:59:22.218Z,997.7
2023-03-22T09:00:38.443Z,997.7
2023-03-22T09:01:54.709Z,997.7
2023-03-22T09:03:10.934Z,997.7
2023-03-22T09:04:27.166Z,997.6
2023-03-22T09:05:43.412Z,997.6
2023-03-22T09:06:59.641Z,997.6
2023-03-22T09:08:15.892Z,997.6
2023-03-22T09:09:32.142Z,997.6
2023-03-22T09:10:48.369Z,997.5
2023-03-22T09:12:04.610Z,997.5
2023-03-22T09:13:20.838Z,997.4
2023-03-22T09:14:37.080Z,997.5
2023-03-22T09:15:52.356Z,997.4
2023-03-22T09:17:08.589Z,997.3
2023-03-22T09:18:24.830Z,997.3
2023-03-22T09:19:41.083Z,997.3
2023-03-22T09:20:57.300Z,997.2
2023-03-22T09:22:13.560Z,997.2
2023-03-22T09:23:29.795Z,997.2
2023-03-22T09:24:46.025Z,997.2
2023-03-22T09:26:02.255Z,997.2
2023-03-22T09:27:18.509Z,997.2
2023-03-22T09:28:34.000Z,997.1
2023-03-22T09:29:50.985Z,997.1
2023-03-22T09:31:07.235Z,997
2023-03-22T09:32:22.473Z,997.1
2023-03-22T09:33:38.705Z,997
2023-03-22T09:34:54.971Z,997
2023-03-22T09:36:11.187Z,997
2023-03-22T09:37:27.452Z,997
2023-03-22T09:38:43.666Z,997
2023-03-22T09:39:59.920Z,996.9
2023-03-22T09:41:16.159Z,997
2023-03-22T09:42:32.399Z,997
2023-03-22T09:43:48.656Z,996.9
2023-03-22T09:45:04.886Z,996.9
2023-03-22T09:46:21.134Z,997
2023-03-22T09:47:37.357Z,997
2023-03-22T09:48:52.620Z,996.9
2023-03-22T09:50:08.854Z,996.9
2023-03-22T09:51:25.099Z,996.9
2023-03-22T09:52:41.337Z,996.8
2023-03-22T09:53:57.569Z,996.9
2023-03-22T09:55:13.813Z,996.9
2023-03-22T09:56:30.051Z,996.8
2023-03-22T09:57:46.282Z,996.7
2023-03-22T09:59:02.533Z,996.9
2023-03-22T10:00:18.781Z,996.8
2023-03-22T10:01:35.020Z,996.8
2023-03-22T10:02:51.250Z,996.7
2023-03-22T10:04:07.490Z,996.7
2023-03-22T10:05:22.747Z,996.7
2023-03-22T10:06:38.975Z,996.6
2023-03-22T10:07:55.211Z,996.6
2023-03-22T10:09:11.466Z,996.7
2023-03-22T10:10:27.717Z,996.7
2023-03-22T10:11:43.949Z,996.6
2023-03-22T10:13:00.195Z,996.6
2023-03-22T10:14:16.417Z,996.6
2023-03-22T10:15:32.675Z,996.6
2023-03-22T10:16:48.904Z,996.6
2023-03-22T10:18:05.143Z,996.6
2023-03-22T10:19:21.378Z,996.6
2023-03-22T10:20:37.626Z,996.6
2023-03-22T10:21:52.867Z,996.7
2023-03-22T10:23:09.112Z,996.4
2023-03-22T10:24:25.358Z,996.3
2023-03-22T10:25:41.604Z,996.5
2023-03-22T10:26:57.834Z,996.3
2023-03-22T10:28:14.068Z,996.5
2023-03-22T10:29:30.322Z,996.3
2023-03-22T10:30:46.547Z,996.4
2023-03-22T10:32:02.795Z,996.4
2023-03-22T10:33:19.022Z,996.4
2023-03-22T10:34:35.263Z,996.4
2023-03-22T10:35:51.512Z,996.6
2023-03-22T10:37:07.740Z,996.5
2023-03-22T10:38:23.018Z,996.5
2023-03-22T10:39:39.244Z,996.6
2023-03-22T10:40:55.492Z,996.4
2023-03-22T10:42:11.724Z,996.4
2023-03-22T10:43:27.978Z,996.4
2023-03-22T10:44:44.194Z,996.5
2023-03-22T10:46:00.441Z,996.2
2023-03-22T10:47:16.687Z,996.3
2023-03-22T10:48:32.917Z,996.3
2023-03-22T10:49:49.157Z,996.3
2023-03-22T10:51:05.412Z,996.1
2023-03-22T10:52:21.649Z,996.3
2023-03-22T10:53:37.892Z,996.4
2023-03-22T10:54:53.131Z,996.4
2023-03-22T10:56:09.385Z,996.3
2023-03-22T10:57:25.617Z,996.1
2023-03-22T10:58:41.871Z,996.2
2023-03-22T10:59:58.089Z,996.1
2023-03-22T11:01:14.340Z,996
2023-03-22T11:02:30.598Z,996.1
2023-03-22T11:03:46.834Z,996.2
2023-03-22T11:05:03.061Z,996.2
2023-03-22T11:06:19.298Z,996
2023-03-22T11:07:35.543Z,996.1
2023-03-22T11:08:51.780Z,996.2
2023-03-22T11:10:08.035Z,995.9
2023-03-22T11:11:23.291Z,996
2023-03-22T11:12:39.517Z,996
2023-03-22T11:13:55.784Z,996
2023-03-22T11:15:12.023Z,995.9
2023-03-22T11:16:28.250Z,996
2023-03-22T11:17:44.479Z,995.9
2023-03-22T11:18:59.760Z,995.9
2023-03-22T11:20:15.992Z,995.9
2023-03-22T11:21:32.230Z,995.8
2023-03-22T11:22:48.470Z,995.8
2023-03-22T11:24:04.722Z,995.8
2023-03-22T11:25:20.942Z,995.8
2023-03-22T11:26:37.195Z,995.8
2023-03-22T11:27:53.436Z,995.8
2023-03-22T11:29:09.688Z,995.8
2023-03-22T11:30:25.901Z,995.7
2023-03-22T11:31:42.153Z,995.7
2023-03-22T11:32:58.384Z,995.7
2023-03-22T11:34:14.639Z,995.8
2023-03-22T11:35:29.874Z,995.7
2023-03-22T11:36:46.141Z,995.7
2023-03-22T11:38:02.371Z,995.8
2023-03-22T11:39:18.617Z,995.7
2023-03-22T11:40:34.855Z,995.7
2023-03-22T11:41:51.099Z,995.7
2023-03-22T11:43:07.327Z,995.6
2023-03-22T11:44:23.565Z,995.7
2023-03-22T11:45:39.795Z,995.7
2023-03-22T11:46:56.048Z,995.6
2023-03-22T11:48:12.299Z,995.7
2023-03-22T11:49:28.510Z,995.6
2023-03-22T11:50:44.764Z,995.7
2023-03-22T11:52:00.006Z,995.7
2023-03-22T11:53:16.254Z,995.7
2023-03-22T11:54:32.506Z,995.6
2023-03-22T11:55:48.739Z,995.6
2023-03-22T11:57:04.980Z,995.6
2023-03-22T11:58:21.212Z,995.6
2023-03-22T11:59:37.459Z,995.7
2023-03-22T12:00:53.680Z,995.5
2023-03-22T12:02:09.946Z,995.5
2023-03-22T12:03:26.158Z,995.4
2023-03-22T12:04:42.401Z,995.5
2023-03-22T12:05:58.639Z,995.5
2023-03-22T12:07:14.915Z,995.4
2023-03-22T12:08:30.147Z,995.4
2023-03-22T12:09:46.392Z,995.4
2023-03-22T12:11:02.633Z,995.4
2023-03-22T12:12:18.878Z,995.4
2023-03-22T12:13:35.097Z,995.4
2023-03-22T12:14:51.343Z,995.4
2023-03-22T12:16:07.577Z,995.4
2023-03-22T12:17:23.815Z,995.4
2023-03-22T12:18:40.066Z,995.4
2023-03-22T12:19:56.295Z,995.4
2023-03-22T12:21:12.538Z,995.3
2023-03-22T12:22:28.796Z,995.3
2023-03-22T12:23:45.016Z,995.3
2023-03-22T12:25:00.289Z,995.3
2023-03-22T12:26:16.513Z,995.2
2023-03-22T12:27:32.750Z,995.2
2023-03-22T12:30:05.245Z,995.3
2023-03-22T12:31:21.502Z,995.2
2023-03-22T12:32:37.729Z,995.2
2023-03-22T12:33:53.955Z,995.2
2023-03-22T12:35:10.194Z,995.2
2023-03-22T12:36:26.428Z,995.2
2023-03-22T12:37:42.664Z,995.1
2023-03-22T12:38:58.920Z,995.2
2023-03-22T12:40:15.169Z,995.2
2023-03-22T12:41:30.407Z,995.2
2023-03-22T12:42:46.639Z,995.1
2023-03-22T12:44:02.880Z,995.2
2023-03-22T12:45:19.134Z,995.2
2023-03-22T12:46:35.394Z,995.1
2023-03-22T12:47:51.614Z,995.1
2023-03-22T12:49:07.862Z,995.1
2023-03-22T12:50:24.104Z,995.1
2023-03-22T12:51:40.327Z,995.2
2023-03-22T12:52:56.577Z,995.1
2023-03-22T12:54:12.800Z,995.1
2023-03-22T12:55:29.061Z,995.1
2023-03-22T12:56:45.293Z,995
2023-03-22T12:58:00.570Z,995
2023-03-22T13:00:33.040Z,995
2023-03-22T13:01:49.253Z,995
2023-03-22T13:03:05.500Z,995
2023-03-22T13:04:21.733Z,995
2023-03-22T13:05:38.001Z,994.9
2023-03-22T13:06:54.218Z,995
2023-03-22T13:08:10.484Z,994.8
2023-03-22T13:09:26.702Z,994.9
2023-03-22T13:10:42.950Z,994.8
2023-03-22T13:11:59.189Z,994.9
2023-03-22T13:13:15.415Z,994.8
2023-03-22T13:14:30.678Z,994.8
2023-03-22T13:15:46.926Z,994.8
2023-03-22T13:17:03.157Z,994.9
2023-03-22T13:18:19.399Z,994.8
2023-03-22T13:19:35.643Z,994.8
2023-03-22T13:20:51.873Z,994.8
2023-03-22T13:22:08.116Z,994.7
2023-03-22T13:23:24.353Z,994.8
2023-03-22T13:24:40.614Z,994.8
2023-03-22T13:25:56.855Z,994.9
2023-03-22T13:27:13.065Z,994.7
2023-03-22T13:28:29.317Z,994.7
2023-03-22T13:29:45.546Z,994.7
2023-03-22T13:31:00.813Z,994.7
2023-03-22T13:32:17.048Z,994.7
2023-03-22T13:33:33.295Z,994.7
2023-03-22T13:34:49.531Z,994.7
2023-03-22T13:36:05.783Z,994.7
2023-03-22T13:37:22.011Z,994.7
2023-03-22T13:38:38.245Z,994.7
2023-03-22T13:39:54.491Z,994.7
2023-03-22T13:41:10.749Z,994.7
2023-03-22T13:42:26.974Z,994.7
2023-03-22T13:43:43.215Z,994.6
2023-03-22T13:44:59.445Z,994.6
2023-03-22T13:46:15.699Z,994.7
2023-03-22T13:47:30.938Z,994.7
2023-03-22T13:48:47.205Z,994.7
2023-03-22T13:50:03.439Z,994.7
2023-03-22T13:51:19.671Z,994.6
2023-03-22T13:52:35.909Z,994.6
2023-03-22T13:53:52.155Z,994.6
2023-03-22T13:55:08.379Z,994.6
2023-03-22T13:56:24.627Z,994.6
2023-03-22T13:57:40.852Z,994.6
2023-03-22T13:58:57.096Z,994.6
2023-03-22T14:01:29.588Z,994.5
2023-03-22T14:02:45.815Z,994.5
2023-03-22T14:04:01.089Z,994.5
2023-03-22T14:05:17.317Z,994.4
2023-03-22T14:06:33.552Z,994.4
2023-03-22T14:07:49.797Z,994.4
2023-03-22T14:09:06.028Z,994.5
2023-03-22T14:10:22.299Z,994.5
2023-03-22T14:11:38.505Z,994.5
2023-03-22T14:12:54.768Z,994.6
2023-03-22T14:14:11.010Z,994.5
2023-03-22T14:15:27.227Z,994.5
2023-03-22T14:16:43.487Z,994.4
2023-03-22T14:17:59.715Z,994.4
2023-03-22T14:19:15.942Z,994.4
2023-03-22T14:20:31.227Z,994.4
2023-03-22T14:21:47.467Z,994.4
2023-03-22T14:52:16.217Z,994.3
2023-03-22T14:53:31.000Z,994.3
2023-03-22T14:54:47.704Z,994.3
2023-03-22T14:56:03.941Z,994.3
2023-03-22T14:57:20.193Z,994.3
2023-03-22T14:58:36.454Z,994.4
2023-03-22T14:59:52.665Z,994.3
2023-03-22T15:01:08.903Z,994.3
2023-03-22T15:02:25.145Z,994.3
2023-03-22T15:03:41.384Z,994.3
2023-03-22T15:04:57.635Z,994.3
2023-03-22T15:06:13.867Z,994.4
2023-03-22T15:07:30.105Z,994.3
2023-03-22T15:08:46.355Z,994.3
2023-03-22T15:10:01.625Z,994.4
2023-03-22T15:11:17.859Z,994.4
2023-03-22T15:12:34.117Z,994.4
2023-03-22T15:13:50.315Z,994.4
2023-03-22T15:15:06.560Z,994.4
2023-03-22T15:17:39.050Z,994.5
2023-03-22T15:18:55.282Z,994.4
2023-03-22T15:20:11.515Z,994.4
2023-03-22T15:21:27.778Z,994.4
2023-03-22T15:22:44.006Z,994.4
2023-03-22T15:24:00.232Z,994.5
2023-03-22T15:25:16.498Z,994.4
2023-03-22T15:26:31.761Z,994.4
2023-03-22T15:27:47.973Z,994.4
2023-03-22T15:29:04.000Z,994.4
2023-03-22T15:30:20.472Z,994.4
2023-03-22T15:31:36.689Z,994.4
2023-03-22T15:32:52.940Z,994.4
2023-03-22T15:34:08.220Z,994.3
2023-03-22T15:35:24.469Z,994.3
2023-03-22T15:36:40.665Z,994.3
2023-03-22T15:37:56.907Z,994.4
2023-03-22T15:39:13.153Z,994.3
2023-03-22T15:40:29.401Z,994.4
2023-03-22T15:41:45.635Z,994.5
2023-03-22T15:43:01.863Z,994.4
2023-03-22T15:44:18.108Z,994.4
2023-03-22T15:45:34.358Z,994.4
2023-03-22T15:46:50.626Z,994.4
2023-03-22T15:48:06.853Z,994.4
2023-03-22T15:49:23.074Z,994.4
2023-03-22T15:50:38.352Z,994.4
2023-03-22T15:51:54.556Z,994.4
2023-03-22T15:53:10.799Z,994.4
2023-03-22T15:54:27.035Z,994.3
2023-03-22T15:55:43.284Z,994.4
2023-03-22T15:56:59.533Z,994.3
2023-03-22T15:58:15.800Z,994.4
2023-03-22T15:59:31.999Z,994.3
2023-03-22T16:00:48.279Z,994.3
2023-03-22T16:02:04.488Z,994.3
2023-03-22T16:03:20.716Z,994.4
2023-03-22T16:04:36.984Z,994.5
2023-03-22T16:05:53.235Z,994.4
2023-03-22T16:07:08.469Z,994.5
2023-03-22T16:08:24.723Z,994.5
2023-03-22T16:09:40.937Z,994.4
2023-03-22T16:10:57.181Z,994.5
2023-03-22T16:12:13.423Z,994.4
2023-03-22T16:13:29.686Z,994.4
2023-03-22T16:14:45.896Z,994.4
2023-03-22T16:16:02.146Z,994.4
2023-03-22T16:17:18.371Z,994.5
2023-03-22T16:18:34.616Z,994.5
2023-03-22T16:19:50.845Z,994.5
2023-03-22T16:21:07.087Z,994.5
2023-03-22T16:22:23.333Z,994.5
2023-03-22T16:23:38.611Z,994.5
2023-03-22T16:24:54.831Z,994.6
2023-03-22T16:26:11.098Z,994.5
2023-03-22T16:27:27.305Z,994.5
2023-03-22T16:28:43.571Z,994.5
2023-03-22T16:29:59.789Z,994.5
2023-03-22T16:31:16.055Z,994.5
2023-03-22T16:32:32.267Z,994.5
2023-03-22T16:33:48.504Z,994.5
2023-03-22T16:35:04.745Z,994.5
2023-03-22T16:36:21.029Z,994.6
2023-03-22T16:37:37.230Z,994.6
2023-03-22T16:38:53.496Z,994.6
2023-03-22T16:41:24.983Z,994.7
2023-03-22T16:42:41.205Z,994.7
2023-03-22T16:43:57.438Z,994.7
2023-03-22T16:45:13.685Z,994.7
2023-03-22T16:46:29.917Z,994.8
2023-03-22T16:47:46.156Z,994.7
2023-03-22T16:49:02.434Z,994.7
2023-03-22T16:50:18.646Z,994.7
2023-03-22T16:51:34.902Z,994.7
2023-03-22T16:52:51.129Z,994.8
2023-03-22T16:54:07.399Z,994.7
2023-03-22T16:55:23.611Z,994.8
2023-03-22T16:56:38.885Z,994.8
2023-03-22T16:57:55.105Z,994.8
2023-03-22T16:59:11.361Z,994.8
2023-03-22T17:00:27.573Z,994.9
2023-03-22T17:01:43.850Z,994.8
2023-03-22T17:03:00.049Z,994.9
2023-03-22T17:04:16.287Z,994.9